Time;durP1;ratioP1;P1;durP2;ratioP2;P2;SDS_P1;SDS_P2;PMS_P1;PMS_P2;Temp;Humidity;BMP_temperature;BMP_pressure;BME280_temperature;BME280_humidity;BME280_pressure;Samples;Min_cycle;Max_cycle;Signal;HPM_P1;HPM_P2
2022/10/25 00:00:55;;;;;;;;;;;14.10;99.90;;;;;;4971108;28;19922;-84
2022/10/25 00:03:34;;;;;;;;;;;14.10;99.90;;;;;;4976604;28;19922;-84
2022/10/25 00:11:54;;;;;;;;;;;13.90;99.90;;;;;;4986248;28;19914;-86
2022/10/25 00:14:36;;;;;;;;;;;13.90;99.90;;;;;;4960237;29;19926;-84
2022/10/25 00:17:11;;;;;;;;;;;13.80;99.90;;;;;;4960981;29;19927;-86
2022/10/25 00:19:50;;;;;;;;;;;13.70;99.90;;;;;;4959199;29;19990;-85
2022/10/25 00:22:59;;;;;;;;;;;13.70;99.90;;;;;;4976538;28;19917;-88
2022/10/25 00:25:33;;;;;;;;;;;13.60;99.90;;;;;;4984415;28;19938;-86
2022/10/25 00:27:59;;;;;;;;;;;13.60;99.90;;;;;;4985249;28;19914;-86
2022/10/25 00:30:34;;;;;;;;;;;13.60;99.90;;;;;;4966180;28;19922;-88
2022/10/25 00:33:39;;;;;;;;;;;13.60;99.90;;;;;;4982585;28;19942;-85
2022/10/25 00:36:10;;;;;;;;;;;13.60;99.90;;;;;;4970964;28;19915;-86
2022/10/25 00:38:49;;;;;;;;;;;13.50;99.90;;;;;;4976110;28;19914;-86
2022/10/25 00:41:19;;;;;;;;;;;13.50;99.90;;;;;;4980938;28;19915;-87
2022/10/25 00:43:53;;;;;;;;;;;13.50;99.90;;;;;;4973427;28;19921;-86
2022/10/25 00:46:19;;;;;;;;;;;13.50;99.90;;;;;;4968630;28;19915;-87
2022/10/25 00:49:03;;;;;;;;;;;13.60;99.90;;;;;;4973409;28;19911;-86
2022/10/25 00:51:55;;;;;;;;;;;13.60;99.90;;;;;;4973598;28;19915;-87
2022/10/25 00:54:57;;;;;;;;;;;13.60;99.90;;;;;;4985682;28;19958;-86
2022/10/25 01:00:12;;;;;;;;;;;13.60;99.90;;;;;;3857647;23;19932;-86
2022/10/25 01:02:50;;;;;;;;;;;13.70;99.90;;;;;;5026115;28;20283;-86
2022/10/25 01:05:37;;;;;;;;;;;13.80;99.90;;;;;;5000571;28;19953;-86
2022/10/25 01:08:10;;;;;;;;;;;13.70;99.90;;;;;;5030566;28;19933;-87
2022/10/25 01:14:27;;;;;;;;;;;13.80;99.90;;;;;;5025437;28;20173;-86
2022/10/25 01:17:23;;;;;;;;;;;13.70;99.90;;;;;;5016210;28;19926;-86
2022/10/25 01:20:12;;;;;;;;;;;13.80;99.90;;;;;;4999337;28;19952;-84
2022/10/25 01:22:53;;;;;;;;;;;13.80;99.90;;;;;;4991974;28;19965;-87
2022/10/25 01:26:23;;;;;;;;;;;13.80;99.90;;;;;;5011019;28;19980;-86
2022/10/25 01:29:44;;;;;;;;;;;13.90;99.90;;;;;;5002060;28;20342;-86
2022/10/25 01:32:56;;;;;;;;;;;14.00;99.90;;;;;;4993470;28;20404;-87
2022/10/25 01:35:45;;;;;;;;;;;14.00;99.90;;;;;;4988497;28;19914;-86
2022/10/25 01:38:44;;;;;;;;;;;14.00;99.90;;;;;;4993200;28;20003;-87
2022/10/25 01:41:37;;;;;;;;;;;14.00;99.90;;;;;;4993454;28;19964;-85
2022/10/25 01:44:35;;;;;;;;;;;13.90;99.90;;;;;;4992702;28;19921;-88
2022/10/25 01:47:37;;;;;;;;;;;;;;;;;;;;;
2022/10/25 01:50:25;;;;;;;;;;;13.90;99.90;;;;;;4996916;28;19928;-88
2022/10/25 01:53:09;;;;;;;;;;;13.90;99.90;;;;;;4978042;28;19914;-88
2022/10/25 01:55:55;;;;;;;;;;;13.90;99.90;;;;;;5021606;28;19928;-86
2022/10/25 01:58:42;;;;;;;;;;;13.90;99.90;;;;;;4986038;28;19969;-87
2022/10/25 02:01:46;;;;;;;;;;;13.90;99.90;;;;;;5002336;28;20008;-85
2022/10/25 02:04:40;;;;;;;;;;;13.90;99.90;;;;;;4991181;28;20366;-86
2022/10/25 02:07:30;;;;;;;;;;;13.90;99.90;;;;;;5005274;28;19914;-87
2022/10/25 02:10:34;;;;;;;;;;;13.90;99.90;;;;;;5005589;28;19918;-85
2022/10/25 02:13:24;;;;;;;;;;;13.90;99.90;;;;;;4991405;28;19985;-87
2022/10/25 02:16:27;;;;;;;;;;;13.90;99.90;;;;;;4984092;28;20405;-87
2022/10/25 02:19:22;;;;;;;;;;;13.90;99.90;;;;;;5005889;28;19920;-90
2022/10/25 02:21:49;;;;;;;;;;;14.00;99.90;;;;;;5004514;28;20286;-87
2022/10/25 02:24:25;;;;;;;;;;;14.00;99.90;;;;;;5000499;28;19933;-87
2022/10/25 02:26:55;;;;;;;;;;;14.10;99.90;;;;;;4997083;28;19920;-87
2022/10/25 02:29:28;;;;;;;;;;;14.10;99.90;;;;;;5003415;28;19989;-87
2022/10/25 02:31:54;;;;;;;;;;;14.20;99.90;;;;;;5000880;28;19933;-86
2022/10/25 02:34:22;;;;;;;;;;;14.20;99.90;;;;;;5002700;28;19920;-86
2022/10/25 02:36:54;;;;;;;;;;;14.20;99.90;;;;;;5003789;28;19918;-87
2022/10/25 02:39:22;;;;;;;;;;;14.10;99.90;;;;;;4993572;28;19921;-87
2022/10/25 02:42:04;;;;;;;;;;;14.20;99.90;;;;;;5008780;28;19945;-87
2022/10/25 02:44:36;;;;;;;;;;;14.20;99.90;;;;;;5011054;28;19914;-85
2022/10/25 02:47:02;;;;;;;;;;;14.20;99.90;;;;;;5010790;28;19917;-87
2022/10/25 02:49:31;;;;;;;;;;;14.20;99.90;;;;;;4991596;28;19961;-88
2022/10/25 02:51:58;;;;;;;;;;;14.20;99.90;;;;;;4990499;28;19925;-88
2022/10/25 02:54:29;;;;;;;;;;;14.20;99.90;;;;;;5010604;28;19913;-87
2022/10/25 02:57:01;;;;;;;;;;;14.20;99.90;;;;;;4994141;28;19957;-86
2022/10/25 02:59:30;;;;;;;;;;;14.20;99.90;;;;;;5015586;28;19918;-86
2022/10/25 03:01:59;;;;;;;;;;;14.20;99.90;;;;;;4988178;28;20275;-86
2022/10/25 03:04:25;;;;;;;;;;;14.20;99.90;;;;;;4987905;28;19917;-85
2022/10/25 03:06:51;;;;;;;;;;;14.20;99.90;;;;;;4987871;28;19916;-87
2022/10/25 03:09:17;;;;;;;;;;;14.10;99.90;;;;;;5004009;28;20384;-87
2022/10/25 03:11:43;;;;;;;;;;;14.10;99.90;;;;;;5003680;28;19916;-87
2022/10/25 03:14:09;;;;;;;;;;;14.10;99.90;;;;;;4995349;28;19921;-86
2022/10/25 03:16:34;;;;;;;;;;;14.10;99.90;;;;;;5004030;28;19914;-89
2022/10/25 03:19:00;;;;;;;;;;;14.10;99.90;;;;;;5004884;28;19949;-87
2022/10/25 03:21:31;;;;;;;;;;;14.10;99.90;;;;;;4997510;28;19953;-86
2022/10/25 03:24:15;;;;;;;;;;;14.00;99.90;;;;;;5007433;28;19913;-85
2022/10/25 03:26:43;;;;;;;;;;;14.00;99.90;;;;;;4997694;28;19906;-87
2022/10/25 03:29:16;;;;;;;;;;;14.00;99.90;;;;;;5013968;28;19910;-86
2022/10/25 03:31:45;;;;;;;;;;;14.00;99.90;;;;;;4993470;28;19920;-87
2022/10/25 03:34:16;;;;;;;;;;;14.00;99.90;;;;;;5008887;28;20385;-85
2022/10/25 03:36:45;;;;;;;;;;;14.00;99.90;;;;;;4994491;28;19957;-85
2022/10/25 03:39:26;;;;;;;;;;;14.00;99.90;;;;;;5012224;28;19916;-86
2022/10/25 03:41:55;;;;;;;;;;;14.00;99.90;;;;;;5006476;28;19956;-87
2022/10/25 03:44:32;;;;;;;;;;;14.00;99.90;;;;;;4999261;28;19924;-85
2022/10/25 03:47:02;;;;;;;;;;;14.00;99.90;;;;;;5001845;28;19905;-85
2022/10/25 03:49:36;;;;;;;;;;;14.10;99.90;;;;;;5015434;28;19956;-86
2022/10/25 03:52:04;;;;;;;;;;;14.10;99.90;;;;;;4990606;28;19962;-86
2022/10/25 03:54:30;;;;;;;;;;;14.10;99.90;;;;;;4997042;28;19932;-85
2022/10/25 03:56:56;;;;;;;;;;;14.10;99.90;;;;;;4989270;28;20325;-87
2022/10/25 03:59:39;;;;;;;;;;;14.20;99.90;;;;;;5004657;28;19917;-87
2022/10/25 04:02:05;;;;;;;;;;;14.20;99.90;;;;;;4987403;28;19918;-88
2022/10/25 04:04:41;;;;;;;;;;;14.20;99.90;;;;;;4987614;28;19917;-87
2022/10/25 04:07:23;;;;;;;;;;;14.30;99.90;;;;;;5005163;28;20360;-85
2022/10/25 04:09:52;;;;;;;;;;;14.30;99.90;;;;;;4987594;28;19960;-88
2022/10/25 04:12:20;;;;;;;;;;;14.40;99.90;;;;;;4988537;28;20262;-85
2022/10/25 04:14:49;;;;;;;;;;;14.40;99.90;;;;;;4990595;28;19949;-86
2022/10/25 04:17:30;;;;;;;;;;;14.30;99.90;;;;;;5017323;28;20003;-88
2022/10/25 04:23:06;;;;;;;;;;;14.30;99.90;;;;;;5016852;28;19918;-87
2022/10/25 04:25:46;;;;;;;;;;;14.30;99.90;;;;;;5015031;28;19944;-87
2022/10/25 04:28:17;;;;;;;;;;;14.30;99.90;;;;;;4990298;28;19918;-87
2022/10/25 04:31:04;;;;;;;;;;;14.30;99.90;;;;;;5006185;28;19913;-86
2022/10/25 04:33:40;;;;;;;;;;;14.20;99.90;;;;;;5011480;28;20244;-87
2022/10/25 04:36:19;;;;;;;;;;;14.20;99.90;;;;;;4998431;28;19906;-86
2022/10/25 04:38:51;;;;;;;;;;;14.20;99.90;;;;;;5011561;28;19914;-86
2022/10/25 04:41:28;;;;;;;;;;;14.30;99.90;;;;;;5009376;28;19956;-83
2022/10/25 04:44:04;;;;;;;;;;;14.40;99.90;;;;;;5032158;28;19918;-87
2022/10/25 04:46:33;;;;;;;;;;;14.50;99.90;;;;;;5018086;28;19906;-86
2022/10/25 04:49:02;;;;;;;;;;;14.50;99.90;;;;;;5017259;28;19898;-85
2022/10/25 04:51:34;;;;;;;;;;;14.50;99.90;;;;;;5017202;28;19965;-84
2022/10/25 04:54:14;;;;;;;;;;;14.50;99.90;;;;;;5013422;28;19905;-86
2022/10/25 04:56:46;;;;;;;;;;;14.50;99.90;;;;;;5017604;28;19913;-83
2022/10/25 04:59:19;;;;;;;;;;;14.50;99.90;;;;;;4999040;23;19942;-81
2022/10/25 05:01:44;;;;;;;;;;;14.60;99.90;;;;;;4972211;28;20001;-79
2022/10/25 05:04:10;;;;;;;;;;;14.60;99.90;;;;;;4973851;28;19911;-80
2022/10/25 05:06:36;;;;;;;;;;;14.70;99.90;;;;;;4972979;29;20052;-80
2022/10/25 05:09:02;;;;;;;;;;;14.70;99.90;;;;;;4974110;28;19910;-80
2022/10/25 05:11:28;;;;;;;;;;;14.80;99.90;;;;;;4976822;29;19915;-78
2022/10/25 05:13:53;;;;;;;;;;;14.80;99.90;;;;;;4970882;28;19910;-81
2022/10/25 05:16:22;;;;;;;;;;;14.70;99.90;;;;;;4973700;28;19950;-80
2022/10/25 05:18:49;;;;;;;;;;;14.70;99.90;;;;;;4971337;28;19934;-80
2022/10/25 05:21:15;;;;;;;;;;;14.60;99.90;;;;;;4973973;28;19954;-80
2022/10/25 05:23:41;;;;;;;;;;;14.50;99.90;;;;;;4971973;28;19911;-81
2022/10/25 05:26:11;;;;;;;;;;;14.40;99.90;;;;;;4976032;28;19906;-81
2022/10/25 05:28:38;;;;;;;;;;;14.40;99.90;;;;;;4981411;28;19911;-79
2022/10/25 05:31:04;;;;;;;;;;;14.40;99.90;;;;;;4979009;28;19983;-81
2022/10/25 05:33:30;;;;;;;;;;;14.40;99.90;;;;;;4968735;28;19942;-80
2022/10/25 05:35:57;;;;;;;;;;;14.40;99.90;;;;;;4967227;28;19929;-81
2022/10/25 05:38:23;;;;;;;;;;;14.30;99.90;;;;;;4967829;28;20001;-81
2022/10/25 05:40:51;;;;;;;;;;;14.30;99.90;;;;;;4969370;28;20339;-81
2022/10/25 05:43:17;;;;;;;;;;;14.30;99.90;;;;;;4967196;28;20005;-81
2022/10/25 05:45:42;;;;;;;;;;;14.30;99.90;;;;;;4968457;29;20367;-82
2022/10/25 05:48:08;;;;;;;;;;;14.20;99.90;;;;;;4972387;28;19915;-79
2022/10/25 05:50:33;;;;;;;;;;;14.20;99.90;;;;;;4977039;28;19950;-79
2022/10/25 05:53:00;;;;;;;;;;;14.20;99.90;;;;;;4972912;28;20001;-81
2022/10/25 05:55:25;;;;;;;;;;;14.10;99.90;;;;;;4970093;28;19965;-80
2022/10/25 05:57:51;;;;;;;;;;;14.10;99.90;;;;;;4979204;28;19918;-78
2022/10/25 06:00:17;;;;;;;;;;;14.00;99.90;;;;;;4988872;28;20069;-80
2022/10/25 06:02:42;;;;;;;;;;;14.00;99.90;;;;;;4988028;28;20377;-80
2022/10/25 06:05:08;;;;;;;;;;;14.00;99.90;;;;;;4987819;28;19932;-83
2022/10/25 06:07:34;;;;;;;;;;;14.00;99.90;;;;;;4987747;28;19915;-82
2022/10/25 06:09:59;;;;;;;;;;;14.00;99.90;;;;;;4989649;28;19918;-80
2022/10/25 06:12:25;;;;;;;;;;;14.10;99.90;;;;;;4989112;28;19914;-79
2022/10/25 06:14:51;;;;;;;;;;;14.20;99.90;;;;;;4988043;28;19910;-79
2022/10/25 06:17:16;;;;;;;;;;;14.30;99.90;;;;;;4988576;28;19978;-80
2022/10/25 06:19:42;;;;;;;;;;;14.30;99.90;;;;;;4988494;28;19949;-81
2022/10/25 06:22:08;;;;;;;;;;;14.30;99.90;;;;;;4985128;28;19914;-82
2022/10/25 06:24:33;;;;;;;;;;;14.30;99.90;;;;;;4984391;28;19965;-81
2022/10/25 06:26:59;;;;;;;;;;;14.30;99.90;;;;;;4984307;28;19918;-81
2022/10/25 06:29:25;;;;;;;;;;;14.30;99.90;;;;;;4986485;28;19920;-78
2022/10/25 06:31:50;;;;;;;;;;;14.30;99.90;;;;;;4988782;28;19914;-81
2022/10/25 06:34:16;;;;;;;;;;;14.50;99.90;;;;;;4987385;28;19910;-80
2022/10/25 06:36:41;;;;;;;;;;;14.60;99.90;;;;;;4987171;28;20032;-81
2022/10/25 06:39:07;;;;;;;;;;;14.70;99.90;;;;;;4987748;28;19909;-80
2022/10/25 06:41:35;;;;;;;;;;;14.80;99.90;;;;;;4988673;28;19918;-81
2022/10/25 06:44:01;;;;;;;;;;;14.90;99.90;;;;;;4990192;28;19910;-80
2022/10/25 06:46:28;;;;;;;;;;;14.90;99.90;;;;;;4970297;28;19915;-80
2022/10/25 06:48:55;;;;;;;;;;;15.00;99.90;;;;;;4990409;28;19981;-79
2022/10/25 06:51:21;;;;;;;;;;;15.10;99.90;;;;;;4995954;28;19937;-81
2022/10/25 06:53:51;;;;;;;;;;;15.10;99.90;;;;;;4972698;28;20291;-81
2022/10/25 06:56:17;;;;;;;;;;;15.10;99.90;;;;;;4990167;28;19918;-80
2022/10/25 06:58:43;;;;;;;;;;;15.10;99.90;;;;;;4989185;28;19933;-80
2022/10/25 07:01:10;;;;;;;;;;;15.20;99.90;;;;;;4989778;28;20017;-80
2022/10/25 07:03:36;;;;;;;;;;;15.30;99.90;;;;;;4990954;28;19910;-80
2022/10/25 07:06:04;;;;;;;;;;;15.40;99.90;;;;;;4988119;28;19921;-79
2022/10/25 07:08:31;;;;;;;;;;;15.50;99.90;;;;;;4972533;28;20001;-80
2022/10/25 07:10:56;;;;;;;;;;;15.50;99.90;;;;;;4991848;28;19958;-78
2022/10/25 07:13:24;;;;;;;;;;;15.60;99.90;;;;;;4975306;28;19920;-79
2022/10/25 07:15:49;;;;;;;;;;;15.70;99.90;;;;;;4993110;28;19922;-79
2022/10/25 07:18:15;;;;;;;;;;;15.70;99.90;;;;;;4952321;28;20022;-82
2022/10/25 07:20:45;;;;;;;;;;;15.80;99.90;;;;;;4967028;28;19914;-78
2022/10/25 07:23:11;;;;;;;;;;;15.90;99.90;;;;;;4952010;28;20417;-82
2022/10/25 07:25:37;;;;;;;;;;;15.90;99.90;;;;;;4967309;28;19949;-86
2022/10/25 07:28:03;;;;;;;;;;;15.90;99.90;;;;;;4985830;28;19918;-80
2022/10/25 07:30:28;;;;;;;;;;;16.00;99.90;;;;;;4968263;28;19922;-80
2022/10/25 07:32:54;;;;;;;;;;;16.10;99.90;;;;;;4986145;28;19914;-81
2022/10/25 07:35:20;;;;;;;;;;;16.20;99.90;;;;;;4990765;28;19910;-79
2022/10/25 07:37:45;;;;;;;;;;;16.20;99.90;;;;;;4984055;28;19922;-80
2022/10/25 07:40:11;;;;;;;;;;;16.20;99.90;;;;;;4981724;28;19921;-80
2022/10/25 07:42:37;;;;;;;;;;;16.30;99.90;;;;;;4978220;28;19918;-80
2022/10/25 07:45:02;;;;;;;;;;;16.40;99.90;;;;;;4980846;28;19976;-80
2022/10/25 07:47:28;;;;;;;;;;;16.40;99.90;;;;;;4986920;28;19961;-80
2022/10/25 07:49:56;;;;;;;;;;;16.50;99.90;;;;;;4986045;28;19918;-80
2022/10/25 07:52:22;;;;;;;;;;;16.60;99.90;;;;;;4984830;28;19921;-79
2022/10/25 07:54:48;;;;;;;;;;;16.70;99.90;;;;;;4984610;28;19910;-79
2022/10/25 07:57:13;;;;;;;;;;;16.70;99.90;;;;;;4987857;28;19918;-82
2022/10/25 07:59:39;;;;;;;;;;;16.70;99.90;;;;;;4985029;28;19925;-79
2022/10/25 08:02:05;;;;;;;;;;;16.80;99.90;;;;;;4985691;28;19981;-83
2022/10/25 08:04:31;;;;;;;;;;;16.80;99.90;;;;;;4985603;28;19914;-82
2022/10/25 08:06:58;;;;;;;;;;;16.90;99.90;;;;;;4981267;28;19914;-81
2022/10/25 08:09:24;;;;;;;;;;;16.90;99.90;;;;;;4984052;28;19914;-81
2022/10/25 08:11:49;;;;;;;;;;;16.90;99.90;;;;;;4985823;28;19964;-81
2022/10/25 08:14:15;;;;;;;;;;;16.90;99.90;;;;;;4986838;28;20362;-81
2022/10/25 08:16:41;;;;;;;;;;;16.90;99.90;;;;;;4987641;28;19918;-82
2022/10/25 08:19:06;;;;;;;;;;;16.90;99.90;;;;;;4969504;28;20027;-82
2022/10/25 08:21:32;;;;;;;;;;;17.00;99.90;;;;;;4969318;28;20501;-79
2022/10/25 08:23:58;;;;;;;;;;;17.10;99.90;;;;;;4986330;28;19937;-81
2022/10/25 08:26:25;;;;;;;;;;;17.20;99.90;;;;;;4985502;28;19914;-80
2022/10/25 08:28:51;;;;;;;;;;;17.40;99.90;;;;;;4986945;28;19910;-84
2022/10/25 08:31:17;;;;;;;;;;;17.50;99.90;;;;;;4992244;28;19913;-79
2022/10/25 08:33:42;;;;;;;;;;;18.00;99.90;;;;;;4997789;28;19925;-80
2022/10/25 08:36:08;;;;;;;;;;;18.70;99.90;;;;;;4995104;28;19941;-81
2022/10/25 08:38:34;;;;;;;;;;;19.60;99.90;;;;;;4993085;28;19910;-80
2022/10/25 08:41:22;;;;;;;;;;;20.60;99.90;;;;;;4995642;28;19910;-82
2022/10/25 08:43:51;;;;;;;;;;;21.30;99.90;;;;;;4978379;28;19957;-81
2022/10/25 08:46:26;;;;;;;;;;;22.20;99.90;;;;;;4997241;28;19910;-81
2022/10/25 08:49:09;;;;;;;;;;;23.10;99.90;;;;;;4974946;28;19953;-82
2022/10/25 08:51:36;;;;;;;;;;;24.30;97.70;;;;;;4988753;28;19914;-81
2022/10/25 08:54:05;;;;;;;;;;;25.20;95.80;;;;;;4973324;28;19918;-81
2022/10/25 08:56:31;;;;;;;;;;;26.30;93.90;;;;;;4989936;28;20398;-82
2022/10/25 08:59:00;;;;;;;;;;;26.80;91.80;;;;;;4989104;28;20350;-83
2022/10/25 09:02:47;;;;;;;2.17;0.77;;;27.40;89.90;;;;;;5100130;27;20106;-82
2022/10/25 09:05:35;;;;;;;9.75;1.17;;;27.60;88.40;;;;;;5100860;28;20032;-80
2022/10/25 09:08:12;;;;;;;3.47;0.90;;;27.70;87.60;;;;;;5107392;28;20043;-82
2022/10/25 09:11:09;;;;;;;2.78;0.80;;;28.10;85.50;;;;;;5085090;28;20438;-81
2022/10/25 09:14:09;;;;;;;3.83;1.33;;;28.20;84.30;;;;;;5108900;28;20031;-80
2022/10/25 09:16:47;;;;;;;3.40;1.10;;;29.20;82.40;;;;;;5108915;28;20051;-79
2022/10/25 09:19:34;;;;;;;2.15;0.95;;;29.90;79.70;;;;;;5110277;28;20043;-81
2022/10/25 09:22:02;;;;;;;3.00;0.90;;;30.00;76.80;;;;;;5120674;28;20448;-82
2022/10/25 09:24:33;;;;;;;2.28;0.75;;;30.00;76.10;;;;;;5119154;28;20020;-81
2022/10/25 09:27:13;;;;;;;2.33;1.00;;;29.70;75.30;;;;;;5117926;28;20034;-83
2022/10/25 09:29:53;;;;;;;4.22;0.98;;;29.20;75.10;;;;;;5118491;28;20031;-81
2022/10/25 09:32:37;;;;;;;3.45;1.00;;;29.50;74.80;;;;;;5102821;28;20089;-81
2022/10/25 09:35:06;;;;;;;3.38;1.20;;;29.80;74.70;;;;;;5119636;28;20055;-82
2022/10/25 09:37:40;;;;;;;3.33;1.20;;;30.80;73.40;;;;;;5119555;28;20137;-83
2022/10/25 09:40:14;;;;;;;6.95;1.35;;;32.20;71.30;;;;;;5100898;28;20040;-83
2022/10/25 09:42:48;;;;;;;6.88;0.98;;;32.30;69.60;;;;;;5126534;27;20027;-80
2022/10/25 09:45:39;;;;;;;4.88;0.82;;;32.20;68.40;;;;;;5133767;28;20046;-83
2022/10/25 09:48:35;;;;;;;5.25;0.95;;;32.50;67.70;;;;;;5115069;28;20035;-82
2022/10/25 09:51:18;;;;;;;1.95;0.70;;;32.80;66.70;;;;;;5098929;28;20116;-81
2022/10/25 09:53:46;;;;;;;5.70;0.77;;;32.50;65.70;;;;;;5098274;28;20086;-82
2022/10/25 09:56:11;;;;;;;3.30;1.10;;;30.90;67.00;;;;;;5080616;28;20445;-80
2022/10/25 09:58:40;;;;;;;1.48;0.82;;;31.30;68.10;;;;;;5098029;28;20066;-80
2022/10/25 10:01:11;;;;;;;6.38;1.08;;;31.50;66.60;;;;;;5100467;28;20024;-80
2022/10/25 10:03:41;;;;;;;3.33;0.90;;;30.90;66.80;;;;;;5062361;28;20479;-81
2022/10/25 10:06:24;;;;;;;2.08;0.77;;;30.20;68.20;;;;;;5080728;28;20028;-82
2022/10/25 10:09:01;;;;;;;3.97;0.98;;;30.00;68.20;;;;;;5100885;28;20052;-82
2022/10/25 10:11:28;;;;;;;1.85;0.90;;;30.10;67.70;;;;;;5100528;28;20024;-83
2022/10/25 10:14:00;;;;;;;1.48;0.77;;;29.60;68.00;;;;;;5056769;28;20050;-81
2022/10/25 10:16:35;;;;;;;5.85;0.80;;;29.70;68.30;;;;;;5084493;28;20041;-80
2022/10/25 10:19:22;;;;;;;3.60;0.90;;;29.60;68.60;;;;;;5082027;28;20036;-81
2022/10/25 10:22:06;;;;;;;4.38;0.80;;;29.60;68.70;;;;;;5065585;28;20032;-83
2022/10/25 10:24:43;;;;;;;2.63;0.95;;;29.40;68.80;;;;;;5083922;28;20029;-82
2022/10/25 10:27:24;;;;;;;4.30;0.80;;;28.80;69.20;;;;;;5083671;28;20050;-82
2022/10/25 10:29:57;;;;;;;3.88;1.15;;;28.60;69.90;;;;;;5087845;28;20028;-82
2022/10/25 10:32:33;;;;;;;2.42;1.00;;;28.90;70.10;;;;;;5090339;28;20039;-80
2022/10/25 10:35:00;;;;;;;3.30;0.82;;;29.30;69.60;;;;;;5066425;28;20040;-82
2022/10/25 10:37:30;;;;;;;4.95;1.13;;;29.10;69.80;;;;;;5070974;28;20028;-80
2022/10/25 10:40:02;;;;;;;2.50;0.88;;;29.40;68.70;;;;;;5087846;28;20029;-81
2022/10/25 10:42:36;;;;;;;2.72;0.82;;;29.10;69.10;;;;;;5093203;28;20583;-81
2022/10/25 10:45:10;;;;;;;2.30;0.65;;;28.50;69.10;;;;;;5066484;28;20121;-81
2022/10/25 10:47:50;;;;;;;4.57;1.00;;;28.50;69.60;;;;;;5084387;28;20027;-83
2022/10/25 10:50:23;;;;;;;3.47;0.68;;;28.50;69.10;;;;;;5100267;28;20048;-82
2022/10/25 10:52:51;;;;;;;5.00;0.75;;;29.20;68.40;;;;;;5104934;28;20024;-83
2022/10/25 10:55:23;;;;;;;2.00;1.00;;;29.60;68.10;;;;;;5100090;28;20368;-82
2022/10/25 11:00:28;;;;;;;1.92;0.82;;;30.10;67.30;;;;;;4827996;26;20061;-88
2022/10/25 11:02:54;;;;;;;1.92;0.70;;;29.80;67.20;;;;;;4960228;28;20023;-89
2022/10/25 11:05:38;;;;;;;3.40;0.82;;;30.30;66.70;;;;;;4975393;28;20040;-88
2022/10/25 11:08:07;;;;;;;2.25;0.70;;;30.80;66.30;;;;;;5006683;28;20035;-88
2022/10/25 11:10:39;;;;;;;1.65;0.77;;;31.40;65.20;;;;;;5015586;28;20030;-89
2022/10/25 11:16:28;;;;;;;2.28;0.60;;;30.40;66.00;;;;;;4987761;28;20066;-87
2022/10/25 11:19:12;;;;;;;1.17;0.55;;;30.60;65.70;;;;;;4958341;28;20075;-86
2022/10/25 11:22:04;;;;;;;3.03;0.73;;;31.20;65.20;;;;;;4957422;28;20031;-85
2022/10/25 11:25:03;;;;;;;5.50;1.08;;;31.80;64.70;;;;;;4956389;28;20095;-86
2022/10/25 11:27:53;;;;;;;3.40;0.80;;;32.30;63.90;;;;;;4958335;28;20091;-87
2022/10/25 11:30:21;;;;;;;1.95;0.85;;;31.70;63.70;;;;;;4957734;28;20082;-88
2022/10/25 11:33:20;;;;;;;2.03;0.98;;;32.00;63.70;;;;;;4956775;28;20027;-88
2022/10/25 11:35:57;;;;;;;2.53;0.77;;;32.40;62.90;;;;;;4916698;28;20044;-92
2022/10/25 11:39:01;;;;;;;2.67;0.75;;;31.90;63.30;;;;;;4955971;28;20040;-89
2022/10/25 11:41:33;;;;;;;5.60;0.80;;;31.80;63.00;;;;;;4897514;29;20078;-89
2022/10/25 11:44:14;;;;;;;2.70;0.70;;;31.60;62.90;;;;;;4946005;29;20050;-90
2022/10/25 11:47:05;;;;;;;2.83;0.80;;;31.80;63.70;;;;;;4935718;29;20058;-89
2022/10/25 11:49:37;;;;;;;4.80;0.82;;;32.70;62.20;;;;;;4989450;28;20033;-87
2022/10/25 11:52:14;;;;;;;3.90;1.05;;;33.00;61.70;;;;;;4956205;28;20107;-88
2022/10/25 11:54:49;;;;;;;3.10;0.90;;;33.00;61.00;;;;;;4970867;28;20083;-88
2022/10/25 11:57:34;;;;;;;;;;;32.80;61.40;;;;;;4960317;28;20044;-87
2022/10/25 12:00:34;;;;;;;5.23;0.97;;;33.30;61.30;;;;;;5042192;28;19917;-88
2022/10/25 12:03:28;;;;;;;4.28;1.23;;;33.30;60.80;;;;;;5010955;28;20033;-88
2022/10/25 12:06:22;;;;;;;3.97;0.95;;;32.20;61.50;;;;;;5015628;28;20022;-87
2022/10/25 12:09:23;;;;;;;4.73;1.00;;;29.60;64.00;;;;;;5020499;28;20026;-86
2022/10/25 12:12:09;;;;;;;3.25;0.80;;;27.30;67.30;;;;;;4990079;28;20101;-87
2022/10/25 12:14:41;;;;;;;11.13;1.20;;;25.60;71.10;;;;;;5034505;28;20090;-87
2022/10/25 12:17:28;;;;;;;3.58;1.05;;;25.10;71.90;;;;;;5019679;28;20026;-87
2022/10/25 12:19:58;;;;;;;2.90;0.80;;;24.70;73.20;;;;;;5013697;28;20038;-88
2022/10/25 12:22:35;;;;;;;5.38;1.25;;;23.90;74.90;;;;;;5019071;28;20034;-88
2022/10/25 12:25:05;;;;;;;3.75;1.00;;;23.70;76.30;;;;;;5017513;28;20073;-88
2022/10/25 12:27:33;;;;;;;7.25;1.17;;;23.50;76.30;;;;;;5017885;28;20018;-87
2022/10/25 12:30:13;;;;;;;3.53;0.95;;;23.20;77.20;;;;;;5029564;28;20030;-90
2022/10/25 12:32:42;;;;;;;4.38;1.35;;;22.80;78.40;;;;;;5026927;28;20041;-88
2022/10/25 12:35:35;;;;;;;7.45;1.20;;;22.50;79.20;;;;;;5030943;28;20033;-89
2022/10/25 12:38:09;;;;;;;3.65;0.82;;;22.30;79.40;;;;;;5029269;28;20474;-87
2022/10/25 12:40:40;;;;;;;7.38;1.17;;;22.00;79.80;;;;;;5027059;28;20026;-89
2022/10/25 12:43:23;;;;;;;9.65;0.95;;;21.80;81.20;;;;;;5017480;28;20041;-88
2022/10/25 12:46:02;;;;;;;4.85;1.10;;;21.70;82.50;;;;;;5019958;28;20111;-88
2022/10/25 12:48:46;;;;;;;7.60;1.52;;;21.60;83.40;;;;;;5018502;28;20046;-88
2022/10/25 12:51:45;;;;;;;11.73;1.40;;;21.50;84.00;;;;;;5016093;28;20022;-86
2022/10/25 12:54:28;;;;;;;3.67;1.02;;;21.40;84.70;;;;;;5012154;28;20029;-87
2022/10/25 12:56:57;;;;;;;5.88;1.20;;;21.30;85.20;;;;;;5030992;28;20018;-88
2022/10/25 12:59:37;;;;;;;5.70;1.48;;;21.20;86.50;;;;;;5020034;28;20021;-86
2022/10/25 13:02:28;;;;;;;6.63;1.02;;;21.10;86.50;;;;;;4999175;28;20065;-86
2022/10/25 13:05:27;;;;;;;3.13;1.10;;;21.10;87.10;;;;;;5000233;28;20028;-85
2022/10/25 13:08:00;;;;;;;3.65;1.02;;;21.00;88.30;;;;;;4990487;28;20039;-87
2022/10/25 13:10:30;;;;;;;3.17;1.10;;;20.90;89.00;;;;;;5012046;28;20047;-86
2022/10/25 13:13:03;;;;;;;6.90;1.10;;;20.80;89.70;;;;;;5012378;28;20016;-88
2022/10/25 13:15:59;;;;;;;3.95;1.00;;;20.70;90.00;;;;;;5011156;28;20022;-87
2022/10/25 13:18:33;;;;;;;5.15;1.27;;;20.60;90.30;;;;;;4973807;28;20036;-87
2022/10/25 13:21:01;;;;;;;3.13;1.20;;;20.60;90.50;;;;;;4977787;28;20414;-88
2022/10/25 13:23:42;;;;;;;4.32;1.27;;;20.60;90.90;;;;;;4984131;28;20029;-88
2022/10/25 13:26:11;;;;;;;4.35;1.17;;;20.50;91.30;;;;;;4977124;28;20031;-88
2022/10/25 13:28:44;;;;;;;11.30;1.63;;;20.40;91.80;;;;;;5020184;28;20020;-88
2022/10/25 13:31:34;;;;;;;3.22;0.93;;;20.30;92.30;;;;;;4993803;28;20024;-88
2022/10/25 13:34:12;;;;;;;3.47;1.50;;;20.30;92.60;;;;;;4977875;28;20043;-88
2022/10/25 13:36:52;;;;;;;5.10;1.00;;;20.30;92.50;;;;;;4998916;28;20038;-87
2022/10/25 13:39:41;;;;;;;5.95;1.23;;;20.30;92.60;;;;;;5009564;28;20037;-89
2022/10/25 13:42:27;;;;;;;3.80;1.15;;;20.30;92.20;;;;;;5036156;28;20039;-90
2022/10/25 13:44:56;;;;;;;3.95;1.02;;;20.30;92.50;;;;;;5008031;28;20027;-90
2022/10/25 13:47:51;;;;;;;4.72;1.17;;;20.30;92.70;;;;;;5011351;28;20014;-89
2022/10/25 13:50:32;;;;;;;7.32;0.95;;;20.20;92.40;;;;;;4963708;28;20035;-89
2022/10/25 13:53:05;;;;;;;3.97;1.20;;;20.10;93.00;;;;;;5017055;28;20138;-88
2022/10/25 13:55:43;;;;;;;6.60;1.23;;;20.00;93.60;;;;;;5026767;28;20033;-90
2022/10/25 13:58:27;;;;;;;9.98;1.35;;;20.00;93.90;;;;;;5040523;28;20033;-90
2022/10/25 14:00:55;;;;;;;3.55;0.85;;;20.00;93.90;;;;;;5011598;28;20104;-85
2022/10/25 14:03:25;;;;;;;8.20;1.33;;;19.90;93.90;;;;;;5022322;28;20038;-88
2022/10/25 14:05:54;;;;;;;3.28;0.95;;;19.90;94.10;;;;;;5017976;28;20087;-87
2022/10/25 14:08:45;;;;;;;4.50;1.40;;;19.90;94.60;;;;;;5013670;28;20015;-87
2022/10/25 14:11:16;;;;;;;3.53;0.98;;;19.80;94.90;;;;;;4974671;28;20076;-88
2022/10/25 14:14:15;;;;;;;5.10;1.42;;;19.70;95.00;;;;;;5021570;28;20033;-88
2022/10/25 14:19:19;;;;;;;3.28;1.48;;;19.60;94.90;;;;;;5257829;23;20082;-87
2022/10/25 14:21:47;;;;;;;7.40;1.63;;;19.60;95.30;;;;;;4939795;28;20029;-90
2022/10/25 14:24:16;;;;;;;3.50;1.25;;;19.60;95.60;;;;;;5082352;23;20393;-87
2022/10/25 14:26:58;;;;;;;4.45;1.10;;;19.50;95.50;;;;;;4978384;28;20050;-89
2022/10/25 14:29:27;;;;;;;6.30;1.27;;;19.50;95.50;;;;;;5126495;23;20069;-89
2022/10/25 14:31:54;;;;;;;5.90;1.73;;;19.50;95.40;;;;;;4981221;28;20011;-88
2022/10/25 14:34:22;;;;;;;4.20;1.10;;;19.50;95.60;;;;;;4997527;28;20106;-87
2022/10/25 14:36:51;;;;;;;9.07;1.10;;;19.50;95.80;;;;;;4996835;28;20074;-88
2022/10/25 14:39:24;;;;;;;4.10;1.02;;;19.50;95.60;;;;;;4996595;28;20106;-88
2022/10/25 14:44:30;;;;;;;3.42;1.00;;;19.40;96.40;;;;;;5136406;23;19922;-86
2022/10/25 14:55:05;;;;;;;7.70;1.20;;;19.10;97.40;;;;;;5163713;23;20055;-88
2022/10/25 14:57:35;;;;;;;4.28;0.80;;;19.10;97.60;;;;;;5062909;28;20108;-90
2022/10/25 15:00:03;;;;;;;3.90;1.17;;;19.00;97.80;;;;;;5077548;28;20078;-88